Historyczne dane pomiarowe

Dodano dane terminowe – wersja testowa.

Dane z okresu 1951-2019

Wersja bazy: 1.34 [2019-03-16, lista zmian], aktualizacja planowana na 2019-04-15

Dane meteo z obszaru Polski uzyskane na podstawie danych udostępnionych przez Instytut Meteorologii i Gospodarki Wodnej – Państwowy Instytut Badawczy.

 

Wybierz Datę:    

       

TemperaturaWilgotnośćWiatrCiśnienieOpadyŚniegCzas trwania zjawisk
 Stacja t tx tn tng RH VA  wxwx mslp ppp RRR   cm mm wxwxwxwxwxwxwx
1987-08-14 17.2 22.6 12.4- 64.0- 5.0 2.7---- 2.0------------
1987-08-13 13.2 18.5 8.5- 73.3- 4.0 2.0---- 0.0------------
1987-08-12 13.6 20.0 10.0- 73.3- 2.3 2.0---- 0.0------------
1987-08-11 13.6 19.5 11.9- 83.0- 4.7 2.7---- 1.0------------
1987-08-10 16.1 21.0 12.4- 76.3- 7.3 2.7---- 1.5------------
1987-08-09 16.8 24.6 10.5- 58.5- 4.3 2.3---- 0.0------------
1987-08-08 15.3 20.5 11.9- 71.3- 3.0 2.0---- 0.0------------
1987-08-07 13.4 19.5 8.0- 66.0- 3.7 2.3---- 0.3------------
1987-08-06 12.5 18.0 10.7- 75.0- 4.3 2.0---- 0.0------------
1987-08-05 14.2 19.0 10.5- 72.3- 7.3 1.7---- 0.0------------
1987-08-04 16.0 20.5 10.5- 79.5- 6.3 2.7---- 0.0------------
1987-08-03 15.2 21.0 11.4- 75.3- 1.3 1.7---- 0.2------------
1987-08-02 15.9 22.0 11.0- 74.5- 3.3 2.0---- 0.0------------
1987-08-01 16.4 22.0 10.5- 72.5- 3.3 1.7---- 3.5------------
1987-07-31 16.9 23.1 11.4- 79.0- 7.0 2.0---- 6.4------------
1987-07-30 16.8 23.6 11.0- 72.0- 4.0 1.3---- 0.0------------
1987-07-29 14.5 19.0 10.5- 74.8- 5.7 1.3---- 0.0------------
1987-07-28 13.9 17.0 11.9- 83.5- 8.0 2.0---- 4.3------------
1987-07-27 13.7 19.0 9.5- 71.3- 2.7 2.3---- 1.0------------
1987-07-26 14.8 22.0 11.9- 90.5- 8.0 1.3---- 13.0------------
1987-07-25 21.4 27.1 17.2- 78.8- 4.3 1.0---- 0.0------------
1987-07-24 21.9 28.2 17.2- 77.8- 5.7 2.0---- 3.6------------
1987-07-23 22.1 28.2 15.8- 73.0- 1.0 1.0---- 5.0------------
1987-07-22 22.2 28.0 16.3- 74.5- 3.3 2.7---- 0.0------------
1987-07-21 21.4 27.7 14.3- 73.5- 2.3 1.3---- 0.0------------
1987-07-20 23.4 28.7 18.7- 74.0- 0.3 4.3---- 0.0------------
1987-07-19 23.6 31.2 17.7- 78.8- 5.3 2.3---- 0.3------------
1987-07-18 23.8 30.7 16.3- 71.8- 1.0 2.0---- 0.0------------
1987-07-17 21.4 29.2 14.8- 70.8- 2.7 2.0---- 0.0------------
1987-07-16 19.8 27.1 10.5- 65.0- 0.0 2.7---- 0.0------------
1987-07-15 17.0 24.1 8.5- 68.0- 0.7 1.0---- 0.0------------
1987-07-14 16.8 23.1 12.4- 61.5- 1.0 1.7---- 0.0------------
1987-07-13 19.2 25.1 15.3- 68.3- 2.0 1.3---- 0.0------------
1987-07-12 21.8 27.7 14.3- 56.3- 2.7 4.3---- 3.9------------
1987-07-11 18.0 24.1 11.0- 57.5- 1.0 2.0---- 0.0------------
1987-07-10 16.6 20.5 12.4- 68.3- 2.3 3.0---- 0.0------------
1987-07-09 20.7 26.6 16.3- 69.0- 3.7 2.7---- 1.6------------
1987-07-08 20.6 27.7 11.0- 60.8- 0.0 3.3---- 0.0------------
1987-07-07 17.8 24.1 9.5- 70.0- 0.0 1.3---- 0.0------------
1987-07-06 16.8 22.6 10.0- 70.5- 0.3 1.0---- 0.0------------
1987-07-05 16.8 22.6 13.4- 74.3- 3.7 2.3---- 3.6------------
1987-07-04 19.0 23.1 15.8- 62.5- 5.7 1.3---- 0.0------------
1987-07-03 19.8 23.1 17.2- 69.8- 7.3 1.3---- 0.0------------
1987-07-02 21.4 26.7 19.1- 81.3- 7.3 2.0---- 0.0------------
1987-07-01 24.8 31.2 17.2- 73.5- 0.0 3.0---- 0.0------------
1987-06-30 23.0 28.7 15.3- 75.8- 1.3 1.3---- 0.0------------
1987-06-29 20.8 26.1 14.8- 74.8- 2.7 1.0---- 0.0------------
1987-06-28 19.8 25.6 14.3- 76.5- 1.7 1.3---- 0.0------------
1987-06-27 18.8 25.1 11.9- 75.0- 6.7 1.7---- 0.9------------
1987-06-26 16.8 23.6 7.5- 67.8- 0.7 2.7---- 0.0------------
1987-06-25 16.5 21.0 13.8- 72.3- 3.3 3.3---- 0.0------------
1987-06-24 17.0 22.0 13.4- 76.0- 2.3 2.0---- 0.3------------
1987-06-23 17.4 23.1 12.9- 75.3- 3.0 2.0---- 0.0------------
1987-06-22 18.0 24.6 13.8- 74.8- 3.7 1.3---- 0.0------------
1987-06-21 17.5 25.1 10.5- 71.8- 2.3 3.0---- 0.0------------
1987-06-20 15.7 22.0 7.0- 74.3- 0.7 2.3---- 0.0------------
1987-06-19 12.5 18.5 8.0- 81.3- 2.3 1.0---- 0.0------------
1987-06-18 12.1 19.5 5.5- 76.3- 3.7 1.7---- 3.1------------
1987-06-17 12.5 17.0 10.5- 79.8- 5.3 1.3---- 2.0------------
1987-06-16 17.4 26.1 12.4- 76.8- 6.0 6.7---- 1.8------------
1861.3 ms

 

Źródłem pochodzenia danych jest Instytut Meteorologii i Gospodarki Wodnej – Państwowy Instytut Badawczy. Dane Instytutu Meteorologii i Gospodarki Wodnej – Państwowego Instytutu Badawczego zostały przetworzone.

Dane źródłowe można odnaleźć na stronie https://dane.imgw.pl